Tiempo atmosférico en la estación meteorológica de Labastida, Araba/Álava (610 m.)



Fecha
DESCASC
Temp. máxima en grados centígrados (hora)
DESCASC
Temp. mínima en grados centígrados (hora)
DESCASC
Temp. media en grados centígrados
DESCASC
Racha de viento máxima en m/sg (hora)
DESCASC
Velocidad máxima media en intervalos de 10 minutos(hora)
DESCASC
Precipitaciones diarias en mm
DESCASC
Precipitaciones de 00:00 a 06:00 en mm
DESCASC
Precipitaciones de 06:00 a 12:00 en mm
DESCASC
Precipitaciones de 12:00 a 18:00 en mm
DESCASC
Precipitaciones de 18:00 a 24:00 en mm
DESCASC
06-12-2018 13.9 (14:20) 5.3 (23:59) 9.6 6.94 (06:00) 3.89 (05:40) 0 0 0 0 0
05-12-2018 16.3 (16:30) 6.8 (08:40) 11.5 11.11 (18:40) 5.28 (18:40) 0 0 0 0 0
04-12-2018 14.7 (14:40) 8.1 (08:10) 11.4 6.67 (01:00) 3.61 (00:50) 0 0 0 0 0
03-12-2018 12.5 (16:10) 9.4 (00:00) 10.9 11.39 (08:40) 6.11 (08:40) 2.2 0 0 2.2 0
02-12-2018 11.4 (10:30) 8.6 (00:00) 10 13.89 (14:10) 7.22 (13:00) 0 0 0 0 0
01-12-2018 10.4 (22:20) 3.2 (00:00) 6.8 13.89 (22:50) 7.22 (22:50) 1 0 1 0 0
30-11-2018 9.7 (15:50) 3.5 (00:00) 6.6 8.61 (16:30) 4.72 (13:40) 1.2 1.2 0 0 0
29-11-2018 11 (12:50) 1.1 (00:00) 6.1 9.44 (06:30) 4.44 (06:30) 1.2 0 0 0.2 1
28-11-2018 14.9 (15:40) 3.9 (00:00) 9.4 11.94 (12:30) 6.11 (12:30) 0 0 0 0 0
27-11-2018 11 (14:20) 2.9 (00:00) 7 9.44 (23:10) 5.28 (23:10) 0 0 0 0 0
26-11-2018 8.9 (15:40) 3.9 (06:50) 6.4 10.83 (15:10) 4.72 (14:40) 9.2 8.4 0.6 0 0.2
25-11-2018 11.7 (15:10) 5.4 (00:00) 8.5 12.22 (08:10) 7.5 (08:10) 9.6 7.4 2.2 0 0
24-11-2018 11.8 (14:20) 4.9 (00:00) 8.4 6.39 (06:50) 3.61 (06:00) 0 0 0 0 0
23-11-2018 11.4 (14:20) 5.4 (00:00) 8.4 9.44 (14:30) 4.72 (13:40) 5.8 4.2 1.6 0 0
22-11-2018 12.7 (14:30) 2.8 (00:00) 7.7 6.94 (20:50) 3.06 (14:00) 0 0 0 0 0
21-11-2018 11.4 (15:10) 3.8 (00:00) 7.6 7.22 (18:30) 3.06 (20:10) 1 0.6 0.2 0 0.2
20-11-2018 8.5 (01:30) 3.8 (00:00) 6.1 7.22 (00:20) 3.61 (00:20) 10.6 0.2 5.2 2 3.2
19-11-2018 14.9 (15:30) 7.9 (00:00) 11.4 15.28 (00:30) 5.83 (00:10) 2.4 0 0.2 2 0.2
18-11-2018 10.7 (11:00) 7.9 (00:00) 9.3 17.78 (20:30) 7.22 (20:30) 2 0 0 0 2
17-11-2018 15.7 (13:40) 9 (00:00) 12.3 7.5 (03:20) 3.33 (12:20) 0 0 0 0 0
16-11-2018 16.3 (14:40) 10 (00:00) 13.1 11.11 (19:10) 5 (11:30) 0 0 0 0 0
15-11-2018 17.8 (13:10) 11.6 (00:00) 14.7 10 (03:10) 4.72 (00:30) -- 0 -- 0 0
14-11-2018 17.4 (15:40) 8.5 (00:00) 12.9 12.5 (19:40) 5 (19:00) 0 0 0 0 0
13-11-2018 16.1 (15:30) 9.1 (00:00) 12.6 9.72 (02:10) 4.17 (02:10) 0 0 0 0 0
12-11-2018 15 (00:30) 10.5 (00:00) 12.8 10.28 (00:10) 5 (01:00) 2.8 0 2.2 0.6 0
11-11-2018 16.4 (13:20) 8.5 (00:00) 12.4 11.39 (22:30) 5.28 (22:30) 0.8 0 0 0.6 0.2
10-11-2018 15.3 (16:50) 7.2 (00:00) 11.3 11.39 (20:00) 6.11 (20:00) 0.8 0.8 0 0 0

Gráficas

Temp. máximas Temp. mínimas Temp. medias Precipitaciones Rachas de viento máximas Velocidades máximas media en intervalos de 10 minutos

Datos horarios

Fecha y hora oficial Temperatura (ºC) Velocidad del viento (km/h) Dirección del viento Racha (km/h) Dirección de racha Precipitación (mm) Presión (hPa) Tendencia (hPa) Humedad (%)
2018-12-09 23:00:00 6 0 Calma 12 Noroeste 0 -- -- 85
2018-12-09 22:00:00 7.4 5 Sur 26 Noroeste 0 -- -- 81
2018-12-09 21:00:00 9.3 14 Norte 45 Nordeste 0 -- -- 71
2018-12-09 20:00:00 9.5 21 Norte 38 Nordeste 0 -- -- 69
2018-12-09 19:00:00 9.5 24 Nordeste 37 Nordeste 0 -- -- 73
2018-12-09 18:00:00 9.7 20 Nordeste 32 Nordeste 0 -- -- 75
2018-12-09 17:00:00 12 10 Norte 21 Noroeste 0 -- -- 70
2018-12-09 16:00:00 13.3 9 Noroeste 23 Noroeste 0 -- -- 64
2018-12-09 15:00:00 13.1 10 Noroeste 24 Noroeste 0 -- -- 65
2018-12-09 14:00:00 12.1 10 Norte 23 Noroeste 0 -- -- 66
2018-12-09 13:00:00 12.1 12 Noroeste 24 Noroeste 0 -- -- 69
2018-12-09 12:00:00 10.7 13 Oeste 22 Oeste 0 -- -- 73
2018-12-09 11:00:00 9.6 6 Noroeste 15 Oeste 0 -- -- 75
2018-12-09 10:00:00 7.5 5 Noroeste 10 Norte 0 -- -- 82
2018-12-09 09:00:00 4.3 3 Nordeste 6 Norte 0 -- -- 89
2018-12-09 08:00:00 5.1 4 Norte 14 Noroeste 0 -- -- 87
2018-12-09 07:00:00 6.6 5 Noroeste 30 Oeste 0 -- -- 82
2018-12-09 06:00:00 9 13 Norte 32 Norte 0 -- -- 74
2018-12-09 05:00:00 7.1 5 Norte 19 Noroeste 0 -- -- 78
2018-12-09 04:00:00 9.1 7 Norte 18 Norte 0 -- -- 72
2018-12-09 03:00:00 9.9 10 Norte 20 Norte 0 -- -- 68
2018-12-09 02:00:00 10 8 Norte 26 Nordeste 0 -- -- 68
2018-12-09 01:00:00 9.8 14 Nordeste 23 Norte 0 -- -- 65
2018-12-09 00:00:00 9.5 12 Norte 23 Norte 0 -- -- 63
2018-12-08 23:00:00 8.7 7 Noroeste 16 Nordeste 0 -- -- 70
2018-12-08 22:00:00 7.7 6 Norte 21 Norte 0 -- -- 76
2018-12-08 21:00:00 8.8 13 Norte 21 Noroeste 0 -- -- 73
2018-12-08 20:00:00 9 12 Noroeste 23 Norte 0 -- -- 69
2018-12-08 19:00:00 10.1 12 Norte 20 Nordeste 0 -- -- 65
2018-12-08 18:00:00 9.2 6 Norte 10 Nordeste 0 -- -- 68
2018-12-08 17:00:00 11.3 5 Noroeste 28 Noroeste 0 -- -- 63
2018-12-08 16:00:00 12.2 14 Noroeste 28 Noroeste 0 -- -- 62
2018-12-08 15:00:00 12.1 14 Noroeste 30 Noroeste 0 -- -- 64
2018-12-08 14:00:00 12.2 10 Norte 27 Noroeste 0 -- -- 60
2018-12-08 13:00:00 11.5 9 Noroeste 21 Noroeste 0 -- -- 58
2018-12-08 12:00:00 10 7 Oeste 15 Noroeste 0 -- -- 66
2018-12-08 11:00:00 9.1 6 Noroeste 13 Noroeste 0 -- -- 70
2018-12-08 10:00:00 6.9 9 Noroeste 13 Noroeste 0 -- -- 78
2018-12-08 09:00:00 5.1 3 Noroeste 19 Norte 0 -- -- 83
2018-12-08 08:00:00 6.9 7 Noroeste 18 Norte 0 -- -- 73
2018-12-08 07:00:00 7 4 Sudoeste 37 Nordeste 0 -- -- 80
2018-12-08 06:00:00 8 25 Nordeste 41 Nordeste 0 -- -- 71
2018-12-08 05:00:00 7.5 7 Sur 21 Sudoeste 0 -- -- 79
2018-12-08 04:00:00 7.7 4 Este 17 Noroeste 0 -- -- 78
2018-12-08 03:00:00 8.4 7 Norte 23 Noroeste 0 -- -- 74
2018-12-08 02:00:00 8.2 9 Norte 22 Norte 0 -- -- 82
2018-12-08 01:00:00 8.3 6 Noroeste 25 Nordeste 0 -- -- 85
2018-12-08 00:00:00 8.7 12 Norte 26 Norte 0 -- -- 82
2018-12-07 23:00:00 9 17 Norte 32 Nordeste 0 -- -- 85
2018-12-07 22:00:00 9 6 Norte 19 Norte 0 -- -- 84
2018-12-07 21:00:00 8.5 3 Noroeste 10 Noroeste 0 -- -- 86
2018-12-07 20:00:00 8.6 2 Norte 14 Noroeste 0 -- -- 84
2018-12-07 19:00:00 8.8 8 Noroeste 21 Noroeste 0 -- -- 82
2018-12-07 18:00:00 8.9 10 Noroeste 28 Noroeste 0 -- -- 80
2018-12-07 17:00:00 10.2 14 Oeste 31 Oeste 0 -- -- 75
2018-12-07 16:00:00 10.7 19 Oeste 33 Oeste 0 -- -- 72
2018-12-07 15:00:00 11.9 10 Noroeste 27 Noroeste 0 -- -- 67
2018-12-07 14:00:00 11.1 16 Noroeste 32 Oeste 0 -- -- 69
2018-12-07 13:00:00 9.9 12 Oeste 35 Oeste 0 -- -- 74
2018-12-07 12:00:00 9.4 13 Noroeste 37 Oeste 0 -- -- 76
2018-12-07 11:00:00 7.9 8 Noroeste 23 Noroeste 0 -- -- 81
2018-12-07 10:00:00 7 8 Norte 22 Noroeste 0 -- -- 81
2018-12-07 09:00:00 6 11 Norte 22 Noroeste 0 -- -- 82
2018-12-07 08:00:00 5.5 10 Norte 22 Norte 0 -- -- 83
2018-12-07 07:00:00 6.1 12 Norte 21 Norte 0 -- -- 83
2018-12-07 06:00:00 6.5 11 Norte 22 Noroeste 0 -- -- 82
2018-12-07 05:00:00 7.1 12 Norte 22 Norte 0 -- -- 81
2018-12-07 04:00:00 6.8 11 Norte 19 Norte 0 -- -- 82
2018-12-07 03:00:00 6.7 10 Norte 22 Norte 0 -- -- 81
2018-12-07 02:00:00 6.3 10 Norte 24 Norte 0 -- -- 81
2018-12-07 01:00:00 5 6 Norte 11 Norte 0 -- -- 87
2018-12-07 00:00:00 5.3 5 Norte 8 Norte 0 -- -- 88
2018-12-06 23:00:00 6.9 0 Calma 5 Sudoeste 0 -- -- 86
2018-12-06 22:00:00 7.6 0 Calma 5 Norte 0 -- -- 83
2018-12-06 21:00:00 7.8 5 Norte 10 Nordeste 0 -- -- 82
2018-12-06 20:00:00 7.5 2 Nordeste 8 Norte 0 -- -- 85
2018-12-06 19:00:00 7.4 2 Norte 11 Noroeste 0 -- -- 85
2018-12-06 18:00:00 9.1 7 Noroeste 14 Oeste 0 -- -- 79
2018-12-06 17:00:00 11.8 9 Oeste 22 Oeste 0 -- -- 69
2018-12-06 16:00:00 13 8 Norte 15 Norte 0 -- -- 66
2018-12-06 15:00:00 12.7 7 Norte 17 Norte 0 -- -- 66
2018-12-06 14:00:00 13.8 8 Norte 21 Oeste 0 -- -- 66
2018-12-06 13:00:00 12.8 6 Noroeste 15 Noroeste 0 -- -- 71
2018-12-06 12:00:00 12.3 7 Noroeste 15 Noroeste 0 -- -- 75
2018-12-06 11:00:00 11.1 10 Noroeste 21 Noroeste 0 -- -- 80
2018-12-06 10:00:00 9.6 9 Noroeste 16 Noroeste 0 -- -- 85
2018-12-06 09:00:00 9.3 8 Noroeste 21 Noroeste 0 -- -- 86
2018-12-06 08:00:00 9.5 9 Noroeste 18 Noroeste 0 -- -- 85
2018-12-06 07:00:00 9.9 11 Norte 24 Norte 0 -- -- 84
2018-12-06 06:00:00 10.2 12 Noroeste 25 Noroeste 0 -- -- 84
2018-12-06 05:00:00 10.3 10 Noroeste 21 Noroeste 0 -- -- 84
2018-12-06 04:00:00 9.5 11 Norte 21 Norte 0 -- -- 87
2018-12-06 03:00:00 6.9 3 Norte 10 Nordeste 0 -- -- 91
2018-12-06 02:00:00 6.4 5 Nordeste 9 Norte 0 -- -- 92
2018-12-06 01:00:00 6.9 6 Nordeste 10 Norte 0 -- -- 90
2018-12-06 00:00:00 7.8 3 Nordeste 14 Noroeste 0 -- -- 85
2018-12-05 23:00:00 8 0 Calma 18 Noroeste 0 -- -- 84
2018-12-05 22:00:00 10.2 5 Norte 22 Noroeste 0 -- -- 76
2018-12-05 21:00:00 11.3 9 Norte 19 Norte 0 -- -- 70
2018-12-05 20:00:00 12.3 10 Noroeste 39 Norte 0 -- -- 63
2018-12-05 19:00:00 14 15 Noroeste 40 Noroeste 0 -- -- 54
2018-12-05 18:00:00 11.1 6 Oeste 17 Oeste 0 -- -- 85
2018-12-05 17:00:00 12.1 2 Sudoeste 27 Norte 0 -- -- 83
2018-12-05 16:00:00 14.9 13 Norte 26 Norte 0 -- -- 61
2018-12-05 15:00:00 12.6 4 Sur 14 Sudoeste 0 -- -- 84
2018-12-05 14:00:00 11.2 5 Sudoeste 13 Sudoeste 0 -- -- 94
2018-12-05 13:00:00 10.3 3 Sudeste 9 Sur 0 -- -- 96
2018-12-05 12:00:00 9.5 3 Sudoeste 6 Sur 0 -- -- 96
2018-12-05 11:00:00 8.4 2 Norte 9 Noroeste 0 -- -- 99
2018-12-05 10:00:00 8.1 4 Sudoeste 8 Sudoeste 0 -- -- 98
2018-12-05 09:00:00 7.2 3 Noroeste 9 Noroeste 0 -- -- 98
2018-12-05 08:00:00 7.6 3 Noroeste 8 Noroeste 0 -- -- 97
2018-12-05 07:00:00 8.1 2 Sudoeste 5 Nordeste 0 -- -- 97
2018-12-05 06:00:00 8.2 2 Sudeste 5 Sudeste 0 -- -- 97
2018-12-05 05:00:00 8.7 0 Calma 7 Este 0 -- -- 97
2018-12-05 04:00:00 9.1 5 Nordeste 7 Nordeste 0 -- -- 97
2018-12-05 03:00:00 8.9 2 Noroeste 6 Nordeste 0 -- -- 96
2018-12-05 02:00:00 8.1 3 Norte 6 Norte 0 -- -- 96
2018-12-05 01:00:00 7.7 3 Norte 6 Nordeste 0 -- -- 96
2018-12-05 00:00:00 9.3 0 Calma 6 Noroeste 0 -- -- 94
2018-12-04 23:00:00 9.5 3 Norte 8 Noroeste 0 -- -- 95
2018-12-04 22:00:00 8.2 0 Calma 5 Nordeste 0 -- -- 94
2018-12-04 21:00:00 9.7 4 Nordeste 6 Nordeste 0 -- -- 93
2018-12-04 20:00:00 9.6 3 Norte 9 Nordeste 0 -- -- 92
2018-12-04 19:00:00 10.6 5 Nordeste 11 Nordeste 0 -- -- 90
2018-12-04 18:00:00 11.2 6 Nordeste 10 Nordeste 0 -- -- 89
2018-12-04 17:00:00 13.4 0 Calma 7 Oeste 0 -- -- 82
2018-12-04 16:00:00 14.7 3 Noroeste 10 Noroeste 0 -- -- 78
2018-12-04 15:00:00 14.4 5 Noroeste 10 Oeste 0 -- -- 77
2018-12-04 14:00:00 13.8 4 Sudoeste 10 Sudoeste 0 -- -- 79
2018-12-04 13:00:00 13.5 3 Oeste 10 Oeste 0 -- -- 81
2018-12-04 12:00:00 12.3 5 Oeste 10 Oeste 0 -- -- 85
2018-12-04 11:00:00 11.9 3 Oeste 7 Oeste 0 -- -- 87
2018-12-04 10:00:00 9.9 0 Calma 3 Oeste 0 -- -- 94
2018-12-04 09:00:00 8.2 0 Calma 6 Nordeste 0 -- -- 95
2018-12-04 08:00:00 8.2 2 Nordeste 5 Nordeste 0 -- -- 93
2018-12-04 07:00:00 10.3 5 Norte 13 Nordeste 0 -- -- 91
2018-12-04 06:00:00 9.9 6 Noroeste 15 Norte 0 -- -- 91
2018-12-04 05:00:00 11.7 9 Norte 16 Norte 0 -- -- 84
2018-12-04 04:00:00 11.8 8 Norte 21 Norte 0 -- -- 84
2018-12-04 03:00:00 11.7 10 Norte 21 Noroeste 0 -- -- 84
2018-12-04 02:00:00 11.6 12 Norte 22 Norte 0 -- -- 86
2018-12-04 01:00:00 11.5 10 Norte 24 Noroeste 0 -- -- 85
2018-12-04 00:00:00 10.8 5 Norte 14 Nordeste 0 -- -- 87
2018-12-03 23:00:00 10.8 4 Noroeste 13 Norte 0 -- -- 87
2018-12-03 22:00:00 12.1 8 Norte 21 Norte 0 -- -- 82
2018-12-03 21:00:00 11.8 8 Norte 20 Noroeste 0 -- -- 83
2018-12-03 20:00:00 10 6 Norte 14 Noroeste 0 -- -- 92
2018-12-03 19:00:00 10.7 5 Norte 12 Oeste 0 -- -- 87
2018-12-03 18:00:00 11.5 6 Oeste 17 Noroeste 0 -- -- 84
2018-12-03 17:00:00 11.7 7 Norte 23 Noroeste 0 -- -- 83
2018-12-03 16:00:00 12.4 9 Noroeste 25 Noroeste 0 -- -- 82
2018-12-03 15:00:00 11.4 14 Norte 30 Nordeste 0 -- -- 84
2018-12-03 14:00:00 10.5 11 Norte 22 Norte 1.2 -- -- 88
2018-12-03 13:00:00 10.4 11 Norte 31 Norte 1 -- -- 87
2018-12-03 12:00:00 11.7 11 Norte 41 Noroeste 0 -- -- 77
2018-12-03 11:00:00 11.9 15 Noroeste 39 Norte 0 -- -- 75
2018-12-03 10:00:00 10.7 9 Noroeste 36 Noroeste 0 -- -- 80
2018-12-03 09:00:00 10.2 15 Noroeste 41 Noroeste 0 -- -- 81
2018-12-03 08:00:00 10 20 Norte 40 Noroeste 0 -- -- 82
2018-12-03 07:00:00 9.9 15 Noroeste 36 Noroeste 0 -- -- 81
2018-12-03 06:00:00 10.2 15 Norte 35 Noroeste 0 -- -- 80
2018-12-03 05:00:00 10.4 16 Norte 32 Norte 0 -- -- 79
2018-12-03 04:00:00 10.4 15 Norte 27 Norte 0 -- -- 78
2018-12-03 03:00:00 10.1 14 Norte 31 Norte 0 -- -- 79
2018-12-03 02:00:00 10.4 15 Norte 28 Noroeste 0 -- -- 77
2018-12-03 01:00:00 10.3 15 Norte 28 Noroeste 0 -- -- 78
2018-12-03 00:00:00 10.3 13 Norte 25 Noroeste 0 -- -- 78
2018-12-02 23:00:00 10.6 13 Norte 29 Norte 0 -- -- 76
2018-12-02 22:00:00 10.5 15 Norte 33 Noroeste 0 -- -- 76
2018-12-02 21:00:00 10.6 15 Norte 33 Norte 0 -- -- 76
2018-12-02 20:00:00 10.9 15 Norte 33 Noroeste 0 -- -- 75
2018-12-02 19:00:00 10.8 19 Norte 40 Norte 0 -- -- 76
2018-12-02 18:00:00 10.9 18 Noroeste 44 Noroeste 0 -- -- 75
2018-12-02 17:00:00 10.8 18 Noroeste 45 Noroeste 0 -- -- 76
2018-12-02 16:00:00 10.5 18 Noroeste 46 Noroeste 0 -- -- 77
2018-12-02 15:00:00 11 19 Noroeste 50 Noroeste 0 -- -- 73
2018-12-02 14:00:00 11.1 24 Noroeste 49 Noroeste 0 -- -- 73
2018-12-02 13:00:00 10.5 26 Noroeste 47 Noroeste 0 -- -- 74
2018-12-02 12:00:00 10.5 18 Noroeste 48 Noroeste 0 -- -- 72
2018-12-02 11:00:00 10.5 12 Noroeste 27 Oeste 0 -- -- 72
2018-12-02 10:00:00 9.6 15 Noroeste 45 Noroeste 0 -- -- 76
2018-12-02 09:00:00 9.2 20 Noroeste 38 Noroeste 0 -- -- 78
2018-12-02 08:00:00 8.7 13 Norte 33 Norte 0 -- -- 81
2018-12-02 07:00:00 8.9 16 Norte 33 Noroeste 0 -- -- 81
2018-12-02 06:00:00 9.1 17 Norte 33 Norte 0 -- -- 81
2018-12-02 05:00:00 9.4 15 Norte 41 Noroeste 0 -- -- 79
2018-12-02 04:00:00 9.7 20 Norte 39 Norte 0 -- -- 78
2018-12-02 03:00:00 9.7 17 Norte 33 Norte 0 -- -- 77
2018-12-02 02:00:00 9.7 13 Noroeste 36 Norte 0 -- -- 77
2018-12-02 01:00:00 9.8 19 Norte 46 Norte 0 -- -- 78
2018-12-02 00:00:00 10.2 17 Norte 48 Norte 0 -- -- 77
2018-12-01 23:00:00 10.3 23 Norte 50 Noroeste 0 -- -- 77
2018-12-01 22:00:00 10.3 21 Norte 41 Norte 0 -- -- 74
2018-12-01 21:00:00 10 21 Noroeste 37 Noroeste 0 -- -- 75
2018-12-01 20:00:00 9.6 19 Norte 40 Noroeste 0 -- -- 78
2018-12-01 19:00:00 10 17 Norte 35 Norte 0 -- -- 73
2018-12-01 18:00:00 9.5 13 Norte 29 Noroeste 0 -- -- 76
2018-12-01 17:00:00 9.1 16 Norte 30 Noroeste 0 -- -- 78
2018-12-01 16:00:00 9.2 14 Norte 26 Noroeste 0 -- -- 75
2018-12-01 15:00:00 9.2 14 Norte 30 Norte 0 -- -- 74
2018-12-01 14:00:00 9.1 13 Norte 37 Norte 0 -- -- 77
2018-12-01 13:00:00 9 17 Norte 36 Noroeste 0 -- -- 76
2018-12-01 12:00:00 8.5 19 Norte 34 Norte 0 -- -- 79
2018-12-01 11:00:00 8 15 Norte 34 Norte 0.2 -- -- 81
2018-12-01 10:00:00 7.4 14 Norte 30 Norte 0.4 -- -- 85
2018-12-01 09:00:00 6.9 12 Norte 27 Noroeste 0.4 -- -- 86
2018-12-01 08:00:00 7.2 13 Noroeste 36 Noroeste 0 -- -- 81
2018-12-01 07:00:00 7.7 15 Noroeste 30 Noroeste 0 -- -- 75
2018-12-01 06:00:00 7.4 13 Norte 24 Noroeste 0 -- -- 76
2018-12-01 05:00:00 7.1 10 Noroeste 23 Noroeste 0 -- -- 77
2018-12-01 04:00:00 6.8 11 Noroeste 19 Norte 0 -- -- 78
2018-12-01 03:00:00 7 9 Norte 22 Norte 0 -- -- 76
2018-12-01 02:00:00 5.9 6 Noroeste 13 Noroeste 0 -- -- 80
2018-12-01 01:00:00 4 0 Calma 11 Norte 0 -- -- 84
2018-12-01 00:00:00 3.7 2 Nordeste 10 Norte 0 -- -- 86
2018-11-30 23:00:00 4.5 8 Nordeste 10 Nordeste 0 -- -- 83
2018-11-30 22:00:00 3.9 5 Nordeste 8 Nordeste 0 -- -- 86
2018-11-30 21:00:00 4.6 0 Calma 12 Noroeste 0 -- -- 81
2018-11-30 20:00:00 6.2 5 Norte 18 Noroeste 0 -- -- 76
2018-11-30 19:00:00 6.7 6 Norte 20 Noroeste 0 -- -- 74
2018-11-30 18:00:00 7.8 9 Noroeste 26 Noroeste 0 -- -- 74
2018-11-30 17:00:00 9.3 10 Noroeste 31 Norte 0 -- -- 68
2018-11-30 16:00:00 9.6 9 Oeste 24 Noroeste 0 -- -- 67
2018-11-30 15:00:00 8.8 10 Noroeste 27 Oeste 0 -- -- 71
2018-11-30 14:00:00 9.3 16 Oeste 30 Oeste 0 -- -- 69
2018-11-30 13:00:00 8.8 10 Oeste 23 Oeste 0 -- -- 74
2018-11-30 12:00:00 7.8 10 Noroeste 22 Noroeste 0 -- -- 79
2018-11-30 11:00:00 7.5 11 Noroeste 27 Noroeste 0 -- -- 81
2018-11-30 10:00:00 6.9 11 Noroeste 23 Noroeste 0 -- -- 84
2018-11-30 09:00:00 6.5 5 Noroeste 11 Oeste 0 -- -- 88
2018-11-30 08:00:00 6.3 5 Noroeste 11 Noroeste 0 -- -- 89
2018-11-30 07:00:00 6.8 4 Norte 13 Norte 0 -- -- 88
2018-11-30 06:00:00 5.8 2 Norte 15 Noroeste 0 -- -- 91
2018-11-30 05:00:00 6.5 8 Norte 15 Noroeste 0 -- -- 89
2018-11-30 04:00:00 6.6 7 Norte 16 Norte 0 -- -- 90
2018-11-30 03:00:00 7.1 10 Norte 20 Norte 0 -- -- 88
2018-11-30 02:00:00 7.5 7 Noroeste 18 Norte 0 -- -- 89
2018-11-30 01:00:00 7.3 8 Noroeste 21 Noroeste 1.2 -- -- 92
2018-11-30 00:00:00 7.3 3 Oeste 19 Noroeste 0 -- -- 88
2018-11-29 23:00:00 7.8 8 Norte 20 Norte 0 -- -- 88
2018-11-29 22:00:00 6 5 Noroeste 13 Noroeste 0 -- -- 94
2018-11-29 21:00:00 6.2 6 Noroeste 16 Noroeste 0.6 -- -- 93
2018-11-29 20:00:00 6.7 3 Sudeste 13 Este 0.2 -- -- 91
2018-11-29 19:00:00 7 4 Sur 13 Noroeste 0.2 -- -- 88
2018-11-29 18:00:00 6.9 2 Sudeste 15 Sudoeste 0.2 -- -- 87
2018-11-29 17:00:00 9.4 9 Oeste 21 Noroeste 0 -- -- 68
2018-11-29 16:00:00 9.4 3 Noroeste 15 Noroeste 0 -- -- 66
2018-11-29 15:00:00 8.7 4 Sudoeste 13 Sudoeste 0 -- -- 75
2018-11-29 14:00:00 8.9 5 Sudoeste 17 Sudoeste 0 -- -- 73
2018-11-29 13:00:00 11 6 Sur 15 Sur 0 -- -- 68
2018-11-29 12:00:00 9.2 4 Sudoeste 10 Sudoeste 0 -- -- 73
2018-11-29 11:00:00 5.3 2 Sudoeste 10 Oeste 0 -- -- 87
2018-11-29 10:00:00 3.3 3 Oeste 30 Oeste 0 -- -- 94
2018-11-29 09:00:00 2.3 5 Sudoeste 15 Oeste 0 -- -- 93
2018-11-29 08:00:00 1.4 5 Sur 18 Nordeste 0 -- -- 93
2018-11-29 07:00:00 1.9 7 Sudoeste 34 Oeste 0 -- -- 90
2018-11-29 06:00:00 1.8 4 Sur 12 Sudeste 0 -- -- 92
2018-11-29 05:00:00 2.1 4 Sudeste 9 Sudeste 0 -- -- 90
2018-11-29 04:00:00 1.3 0 Calma 7 Norte 0 -- -- 88
2018-11-29 03:00:00 2.5 2 Sur 6 Norte 0 -- -- 84
2018-11-29 02:00:00 2.6 2 Sudoeste 5 Sudoeste 0 -- -- 82
2018-11-29 01:00:00 3.6 0 Calma 6 Sur 0 -- -- 75
2018-11-29 00:00:00 3.9 2 Este 12 Nordeste 0 -- -- 72
2018-11-28 23:00:00 5.9 6 Nordeste 10 Nordeste 0 -- -- 60
2018-11-28 22:00:00 5.5 3 Nordeste 5 Nordeste 0 -- -- 65
2018-11-28 21:00:00 8.7 6 Norte 19 Norte 0 -- -- 54
2018-11-28 13:00:00 -- -- -- -- -- -- -- -- --
2018-11-28 12:00:00 12.8 14 Noroeste 36 Noroeste 0 -- -- 44
2018-11-28 11:00:00 11.6 12 Norte 27 Norte 0 -- -- 46
2018-11-28 10:00:00 10 9 Noroeste 24 Noroeste 0 -- -- 52
2018-11-28 09:00:00 9.8 8 Noroeste 26 Noroeste 0 -- -- 50
2018-11-28 08:00:00 9.3 13 Noroeste 28 Noroeste 0 -- -- 53
2018-11-28 07:00:00 10.1 16 Noroeste 32 Noroeste 0 -- -- 52
2018-11-28 06:00:00 10 14 Noroeste 32 Noroeste 0 -- -- 53
2018-11-28 05:00:00 9.8 14 Noroeste 35 Noroeste 0 -- -- 50
2018-11-28 04:00:00 9.6 19 Norte 35 Norte 0 -- -- 51
2018-11-28 03:00:00 9.3 14 Norte 28 Norte 0 -- -- 53
2018-11-28 02:00:00 9.6 13 Noroeste 33 Noroeste 0 -- -- 53
2018-11-28 01:00:00 9.5 15 Norte 30 Norte 0 -- -- 59
2018-11-28 00:00:00 9.4 12 Norte 34 Norte 0 -- -- 56
2018-11-27 23:00:00 9.5 15 Norte 32 Noroeste 0 -- -- 52
2018-11-27 22:00:00 9.8 14 Norte 30 Noroeste 0 -- -- 49
2018-11-27 21:00:00 10 17 Norte 31 Noroeste 0 -- -- 50
2018-11-27 20:00:00 9.9 14 Norte 31 Norte 0 -- -- 55
2018-11-27 19:00:00 9.7 15 Norte 27 Noroeste 0 -- -- 62
2018-11-27 18:00:00 9.7 14 Norte 28 Norte 0 -- -- 61
2018-11-27 17:00:00 10.2 10 Noroeste 29 Norte 0 -- -- 60
2018-11-27 16:00:00 10.5 14 Noroeste 29 Noroeste 0 -- -- 58
2018-11-27 15:00:00 10.8 12 Noroeste 28 Noroeste 0 -- -- 63
2018-11-27 14:00:00 10.7 11 Noroeste 22 Oeste 0 -- -- 64
2018-11-27 13:00:00 9.4 9 Noroeste 27 Oeste 0 -- -- 65
2018-11-27 12:00:00 9.1 13 Noroeste 29 Noroeste 0 -- -- 64
2018-11-27 11:00:00 7.6 12 Noroeste 25 Norte 0 -- -- 72
2018-11-27 10:00:00 6.8 10 Norte 22 Noroeste 0 -- -- 72
2018-11-27 09:00:00 5.4 8 Norte 21 Norte 0 -- -- 77
2018-11-27 08:00:00 5 8 Noroeste 15 Noroeste 0 -- -- 80
2018-11-27 07:00:00 3.1 0 Calma 14 Nordeste 0 -- -- 90
2018-11-27 06:00:00 4.6 10 Nordeste 14 Nordeste 0 -- -- 86
2018-11-27 05:00:00 4.3 7 Nordeste 9 Norte 0 -- -- 87
2018-11-27 04:00:00 5 8 Norte 13 Nordeste 0 -- -- 87
2018-11-27 03:00:00 6.1 3 Norte 13 Norte 0 -- -- 87
2018-11-27 02:00:00 6.6 9 Norte 16 Norte 0 -- -- 86
2018-11-27 01:00:00 6.6 6 Norte 14 Noroeste 0 -- -- 87
2018-11-27 00:00:00 6.3 8 Norte 17 Noroeste 0 -- -- 87
2018-11-26 23:00:00 6.4 8 Norte 19 Norte 0.2 -- -- 89
2018-11-26 22:00:00 6.7 11 Noroeste 27 Noroeste 0 -- -- 86
2018-11-26 21:00:00 7.1 8 Norte 21 Noroeste 0 -- -- 80
2018-11-26 20:00:00 7.2 8 Noroeste 18 Noroeste 0 -- -- 82
2018-11-26 19:00:00 7.2 6 Noroeste 18 Noroeste 0 -- -- 84
2018-11-26 18:00:00 7.6 7 Noroeste 23 Noroeste 0 -- -- 83
2018-11-26 17:00:00 8.1 9 Noroeste 28 Noroeste 0 -- -- 79
2018-11-26 16:00:00 8.4 10 Norte 39 Oeste 0 -- -- 79
2018-11-26 15:00:00 8.2 16 Noroeste 36 Noroeste 0 -- -- 76
2018-11-26 14:00:00 7.8 11 Noroeste 36 Noroeste 0 -- -- 78
2018-11-26 13:00:00 7 12 Noroeste 30 Norte 0 -- -- 83
2018-11-26 12:00:00 7 9 Noroeste 23 Noroeste 0 -- -- 81
2018-11-26 11:00:00 6.1 11 Noroeste 26 Noroeste 0 -- -- 83
2018-11-26 10:00:00 5 6 Noroeste 15 Noroeste 0 -- -- 89
2018-11-26 09:00:00 4.3 7 Norte 15 Norte 0 -- -- 91
2018-11-26 08:00:00 4.2 9 Norte 23 Norte 0.2 -- -- 91
2018-11-26 07:00:00 3.9 15 Norte 30 Norte 0.4 -- -- 91
2018-11-26 06:00:00 4.6 12 Norte 27 Nordeste 2.6 -- -- 87
2018-11-26 05:00:00 4.5 17 Norte 29 Norte 4 -- -- 88
2018-11-26 04:00:00 5.8 10 Norte 17 Norte 1.6 -- -- 90
2018-11-26 03:00:00 5.7 2 Noroeste 5 Noroeste 0 -- -- 90
2018-11-26 02:00:00 5.8 0 Calma 4 Este 0.2 -- -- 87
2018-11-26 01:00:00 5.9 3 Sudeste 9 Sudoeste 0 -- -- 84
2018-11-26 00:00:00 6.5 5 Sur 14 Sudeste 0 -- -- 78
2018-11-25 23:00:00 5.8 2 Norte 11 Este 0 -- -- 81
2018-11-25 22:00:00 6.6 6 Noroeste 13 Oeste 0 -- -- 73
2018-11-25 21:00:00 7.1 4 Este 10 Sudeste 0 -- -- 69
2018-11-25 20:00:00 6.9 4 Este 10 Nordeste 0 -- -- 71
2018-11-25 19:00:00 5.9 5 Este 8 Este 0 -- -- 74
2018-11-25 18:00:00 6.3 3 Este 9 Norte 0 -- -- 74
2018-11-25 17:00:00 9.9 3 Noroeste 13 Noroeste 0 -- -- 55
2018-11-25 16:00:00 10.5 3 Noroeste 18 Nordeste 0 -- -- 55
2018-11-25 15:00:00 11.6 6 Noroeste 18 Oeste 0 -- -- 53
2018-11-25 14:00:00 10.4 6 Noroeste 14 Norte 0 -- -- 62
2018-11-25 13:00:00 10.1 8 Oeste 16 Oeste 0 -- -- 67
2018-11-25 12:00:00 9.4 8 Oeste 16 Noroeste 0 -- -- 72
2018-11-25 11:00:00 7.8 5 Sudoeste 14 Sudoeste 0 -- -- 78
2018-11-25 10:00:00 7 6 Sur 21 Nordeste 0 -- -- 84
2018-11-25 09:00:00 7.5 13 Norte 44 Nordeste 0 -- -- 73
2018-11-25 08:00:00 7.4 24 Norte 43 Norte 0.4 -- -- 81
2018-11-25 07:00:00 7.7 16 Norte 28 Nordeste 1.8 -- -- 90
2018-11-25 06:00:00 6.4 5 Noroeste 12 Oeste 1 -- -- 95
2018-11-25 05:00:00 6.9 5 Noroeste 10 Noroeste 0.4 -- -- 94
2018-11-25 04:00:00 7.7 2 Sur 10 Nordeste 3.8 -- -- 91
2018-11-25 03:00:00 7.4 4 Este 13 Este 2.2 -- -- 89
2018-11-25 02:00:00 8.9 5 Sudeste 17 Sudeste 0 -- -- 67
2018-11-25 01:00:00 8.8 5 Sudeste 24 Sudeste 0 -- -- 68
2018-11-25 00:00:00 8.1 5 Sudeste 15 Este 0 -- -- 71
2018-11-24 23:00:00 8.6 5 Sudeste 13 Este 0 -- -- 68
2018-11-24 22:00:00 7.7 0 Calma 10 Sudeste 0 -- -- 75
2018-11-24 21:00:00 8.2 3 Nordeste 17 Este 0 -- -- 72
2018-11-24 20:00:00 8.1 6 Este 18 Este 0 -- -- 75
2018-11-24 19:00:00 8.7 10 Este 19 Sudeste 0 -- -- 71
2018-11-24 18:00:00 8.4 7 Sudeste 17 Sudeste 0 -- -- 74
2018-11-24 17:00:00 9.7 7 Sudeste 17 Sur 0 -- -- 71
2018-11-24 16:00:00 10.1 5 Sudeste 13 Sur 0 -- -- 70
2018-11-24 15:00:00 10.6 8 Sudeste 15 Sudeste 0 -- -- 68
2018-11-24 14:00:00 10.9 5 Sur 13 Sudoeste 0 -- -- 67
2018-11-24 13:00:00 9.3 2 Sur 8 Sudoeste 0 -- -- 74
2018-11-24 12:00:00 8.2 3 Sur 9 Sudoeste 0 -- -- 79
2018-11-24 11:00:00 7.8 4 Sur 9 Sur 0 -- -- 81
2018-11-24 10:00:00 5.8 4 Noroeste 13 Sudoeste 0 -- -- 87
2018-11-24 09:00:00 5 2 Este 19 Norte 0 -- -- 88
2018-11-24 08:00:00 7.8 9 Norte 20 Norte 0 -- -- 74
2018-11-24 07:00:00 7.6 9 Norte 23 Norte 0 -- -- 75
2018-11-24 06:00:00 7.4 13 Norte 22 Norte 0 -- -- 75
2018-11-24 05:00:00 7.2 10 Norte 20 Norte 0 -- -- 76
2018-11-24 04:00:00 6.9 8 Norte 21 Norte 0 -- -- 78
2018-11-24 03:00:00 6.7 6 Norte 19 Noroeste 0 -- -- 79
2018-11-24 02:00:00 7.1 6 Norte 17 Norte 0 -- -- 76
2018-11-24 01:00:00 7.2 9 Norte 18 Norte 0 -- -- 76
2018-11-24 00:00:00 6.8 6 Norte 14 Norte 0 -- -- 74
2018-11-23 23:00:00 7.2 9 Norte 18 Norte 0 -- -- 70
2018-11-23 22:00:00 7.8 10 Norte 19 Noroeste 0 -- -- 66
2018-11-23 21:00:00 7.6 6 Norte 19 Norte 0 -- -- 68
2018-11-23 20:00:00 7.7 8 Norte 17 Noroeste 0 -- -- 69
2018-11-23 19:00:00 7.5 8 Norte 13 Norte 0 -- -- 73
2018-11-23 18:00:00 8.2 4 Norte 24 Oeste 0 -- -- 69
2018-11-23 17:00:00 9.9 12 Oeste 34 Oeste 0 -- -- 63
2018-11-23 16:00:00 10.9 10 Oeste 30 Noroeste 0 -- -- 61
2018-11-23 15:00:00 10.6 17 Oeste 34 Sudoeste 0 -- -- 61
2018-11-23 14:00:00 10.1 13 Oeste 31 Oeste 0 -- -- 65
2018-11-23 13:00:00 10.2 14 Oeste 28 Oeste 0 -- -- 67
2018-11-23 12:00:00 9.6 3 Sur 17 Norte 0 -- -- 74
2018-11-23 11:00:00 8.8 5 Noroeste 18 Norte 0 -- -- 72
2018-11-23 10:00:00 6.6 7 Norte 15 Noroeste 0 -- -- 81
2018-11-23 09:00:00 5.8 6 Norte 10 Norte 0 -- -- 89
2018-11-23 08:00:00 5.5 4 Norte 12 Noroeste 0 -- -- 90
2018-11-23 07:00:00 5.4 4 Norte 16 Norte 1.6 -- -- 94
2018-11-23 06:00:00 5.7 11 Noroeste 19 Noroeste 2.8 -- -- 94
2018-11-23 05:00:00 6.4 6 Norte 17 Noroeste 1.4 -- -- 94
2018-11-23 04:00:00 6.7 9 Noroeste 15 Noroeste 0 -- -- 91
2018-11-23 03:00:00 7 7 Noroeste 14 Oeste 0 -- -- 88
2018-11-23 02:00:00 9.3 6 Sudeste 22 Este 0 -- -- 72
2018-11-23 01:00:00 9.1 3 Este 17 Sudeste 0 -- -- 75
2018-11-23 00:00:00 9 3 Este 17 Sudeste 0 -- -- 73
2018-11-22 23:00:00 9.2 8 Sudeste 22 Sudeste 0 -- -- 72
2018-11-22 22:00:00 9.2 10 Sudeste 21 Sudeste 0 -- -- 74
2018-11-22 21:00:00 9.4 8 Sudeste 25 Este 0 -- -- 72
2018-11-22 20:00:00 9.5 7 Sudeste 18 Sudeste 0 -- -- 72
2018-11-22 19:00:00 9.4 5 Sudeste 23 Sudeste 0 -- -- 72
2018-11-22 18:00:00 9.4 7 Este 20 Este 0 -- -- 73
2018-11-22 17:00:00 10 6 Sudeste 19 Sudeste 0 -- -- 70
2018-11-22 16:00:00 11.3 4 Sur 21 Sur 0 -- -- 71
2018-11-22 15:00:00 12.5 10 Sudeste 23 Sur 0 -- -- 65
2018-11-22 14:00:00 11.8 11 Sur 23 Sudeste 0 -- -- 68
2018-11-22 13:00:00 10.1 4 Sudoeste 11 Sur 0 -- -- 80
2018-11-22 12:00:00 9 5 Sur 12 Sur 0 -- -- 81
2018-11-22 11:00:00 5.2 6 Noroeste 22 Noroeste 0 -- -- 90
2018-11-22 10:00:00 4 4 Norte 14 Este 0 -- -- 90
2018-11-22 09:00:00 4.7 3 Sudeste 14 Sudeste 0 -- -- 86
2018-11-22 08:00:00 3.3 4 Sur 11 Norte 0 -- -- 92
2018-11-22 07:00:00 3.5 2 Nordeste 8 Sudoeste 0 -- -- 89
2018-11-22 06:00:00 4.5 2 Este 24 Oeste 0 -- -- 88
2018-11-22 05:00:00 5.1 6 Nordeste 11 Norte 0 -- -- 83
2018-11-22 04:00:00 4.8 3 Norte 16 Norte 0 -- -- 83
2018-11-22 03:00:00 5.8 9 Norte 15 Noroeste 0 -- -- 82
2018-11-22 02:00:00 6.2 7 Norte 17 Noroeste 0 -- -- 81
2018-11-22 01:00:00 6.6 4 Norte 13 Oeste 0 -- -- 81
2018-11-22 00:00:00 5.1 2 Norte 6 Sudoeste 0.2 -- -- 92
2018-11-21 23:00:00 5.4 0 Calma 6 Noroeste 0 -- -- 90
2018-11-21 22:00:00 4.4 2 Este 7 Norte 0 -- -- 92
2018-11-21 21:00:00 6.3 2 Sur 16 Nordeste 0 -- -- 86
2018-11-21 20:00:00 6.7 10 Nordeste 14 Nordeste 0 -- -- 84
2018-11-21 19:00:00 7.4 6 Nordeste 26 Sudoeste 0 -- -- 88
2018-11-21 18:00:00 8.4 2 Este 6 Sudeste 0 -- -- 83
2018-11-21 17:00:00 10 4 Este 11 Este 0 -- -- 77
2018-11-21 16:00:00 10.4 6 Sur 18 Sur 0 -- -- 77
2018-11-21 15:00:00 10.4 5 Sudoeste 10 Sudoeste 0 -- -- 83
2018-11-21 14:00:00 9.3 3 Sudoeste 9 Sudoeste 0 -- -- 84
2018-11-21 13:00:00 8.5 4 Sudoeste 9 Sudoeste 0 -- -- 92
2018-11-21 12:00:00 7.3 6 Sur 12 Sudeste 0 -- -- 95
2018-11-21 11:00:00 6.8 4 Sur 10 Sur 0.2 -- -- 96
2018-11-21 10:00:00 6.4 3 Sur 10 Sur 0 -- -- 96
2018-11-21 09:00:00 5.6 2 Sudeste 8 Este 0 -- -- 97
2018-11-21 08:00:00 5.4 2 Sudoeste 8 Este 0 -- -- 96
2018-11-21 07:00:00 5.5 2 Sudeste 10 Sudeste 0 -- -- 97
2018-11-21 06:00:00 4.6 4 Sur 14 Sur 0.2 -- -- 97
2018-11-21 05:00:00 4.7 2 Sudoeste 14 Este 0.2 -- -- 97
2018-11-21 04:00:00 4.3 2 Este 9 Oeste 0 -- -- 98
2018-11-21 03:00:00 4 3 Sur 9 Este 0 -- -- 97
2018-11-21 02:00:00 3.9 4 Sur 9 Sudoeste 0.2 -- -- 97
2018-11-21 01:00:00 4.1 3 Sur 9 Sur 0 -- -- 97
2018-11-21 00:00:00 4.1 2 Sur 6 Sudeste 0.2 -- -- 97
2018-11-20 23:00:00 4 2 Sudoeste 5 Sudoeste 0.2 -- -- 97
2018-11-20 22:00:00 4 0 Calma 4 Sudoeste 0.6 -- -- 97
2018-11-20 21:00:00 4.3 2 Noroeste 4 Noroeste 0.8 -- -- 96
2018-11-20 20:00:00 4.3 2 Sur 4 Sur 1 -- -- 96
2018-11-20 19:00:00 4.4 0 Calma 5 Oeste 0.4 -- -- 95
2018-11-20 18:00:00 4.5 2 Sur 6 Sudeste 0 -- -- 94
2018-11-20 17:00:00 5 2 Sudoeste 8 Noroeste 0.6 -- -- 93
2018-11-20 16:00:00 5.6 6 Oeste 10 Noroeste 0.4 -- -- 92
2018-11-20 15:00:00 5.8 4 Noroeste 12 Noroeste 0.4 -- -- 94
2018-11-20 14:00:00 6.3 6 Sudoeste 12 Oeste 0 -- -- 93
2018-11-20 13:00:00 6.3 5 Sudeste 14 Sur 0.6 -- -- 94
2018-11-20 12:00:00 6.2 4 Sur 10 Sur 1.4 -- -- 95
2018-11-20 11:00:00 6.1 5 Sur 15 Sur 0.4 -- -- 95
2018-11-20 10:00:00 6.3 0 Calma 5 Noroeste 1 -- -- 95
2018-11-20 09:00:00 6.3 3 Oeste 5 Oeste 0.8 -- -- 95
2018-11-20 08:00:00 6.5 3 Noroeste 9 Nordeste 0.4 -- -- 94
2018-11-20 07:00:00 6.6 2 Este 8 Noroeste 1.2 -- -- 93
2018-11-20 06:00:00 6.9 2 Este 8 Noroeste 0 -- -- 90
2018-11-20 05:00:00 6.8 0 Calma 13 Sudoeste 0 -- -- 91
2018-11-20 04:00:00 7.2 4 Sudoeste 13 Este 0.2 -- -- 88
2018-11-20 03:00:00 7.6 4 Noroeste 13 Nordeste 0 -- -- 83
2018-11-20 02:00:00 8.1 7 Nordeste 24 Nordeste 0 -- -- 83
2018-11-20 01:00:00 7.9 7 Sudoeste 26 Nordeste 0 -- -- 86
2018-11-20 00:00:00 8.2 8 Oeste 15 Oeste 0 -- -- 86
2018-11-19 23:00:00 8.8 7 Oeste 26 Nordeste 0 -- -- 83
2018-11-19 22:00:00 9.4 9 Nordeste 21 Norte 0.2 -- -- 83
2018-11-19 21:00:00 8.8 4 Este 9 Este 0 -- -- 91
2018-11-19 20:00:00 8.5 3 Este 8 Nordeste 0 -- -- 90
2018-11-19 19:00:00 10.3 9 Nordeste 24 Nordeste 0 -- -- 79
2018-11-19 18:00:00 9.7 6 Nordeste 17 Nordeste 2 -- -- 87
2018-11-19 17:00:00 11.5 9 Norte 17 Norte 0 -- -- 75
2018-11-19 16:00:00 14.1 8 Norte 17 Norte 0 -- -- 59
2018-11-19 15:00:00 14.2 9 Noroeste 19 Noroeste 0 -- -- 64
2018-11-19 14:00:00 13.3 11 Oeste 19 Oeste 0 -- -- 70
2018-11-19 13:00:00 13.1 6 Noroeste 14 Noroeste 0 -- -- 73
2018-11-19 12:00:00 11 6 Noroeste 12 Noroeste 0.2 -- -- 82
2018-11-19 11:00:00 10.5 5 Noroeste 14 Noroeste 0 -- -- 82
2018-11-19 10:00:00 8.8 11 Noroeste 17 Norte 0 -- -- 89
2018-11-19 09:00:00 9.2 6 Este 30 Este 0 -- -- 80
2018-11-19 08:00:00 8.9 12 Este 30 Nordeste 0 -- -- 81
2018-11-19 07:00:00 8.6 12 Sudeste 26 Sudeste 0 -- -- 86
2018-11-19 06:00:00 8.9 14 Sudeste 35 Sudeste 0 -- -- 84
2018-11-19 05:00:00 8.3 11 Sudeste 38 Sudeste 0 -- -- 88
2018-11-19 04:00:00 8.5 14 Sudeste 38 Este 0 -- -- 86
2018-11-19 03:00:00 8.3 14 Sudeste 44 Sudeste 0 -- -- 87
2018-11-19 02:00:00 8.1 18 Sudeste 45 Sudeste 0 -- -- 89
2018-11-19 01:00:00 8.2 19 Sudeste 55 Sudeste 0 -- -- 88
2018-11-19 00:00:00 8.1 18 Sudeste 47 Sudeste 0 -- -- 90
2018-11-18 23:00:00 8.3 24 Sudeste 54 Este 0.2 -- -- 90
2018-11-18 22:00:00 8.2 17 Sudeste 50 Sudeste 1.2 -- -- 92
2018-11-18 21:00:00 8.4 24 Sudeste 64 Sudeste 0.4 -- -- 90
2018-11-18 20:00:00 8.4 20 Sudeste 49 Sudeste 0.2 -- -- 91
2018-11-18 19:00:00 8.1 18 Sudeste 49 Sudeste 0 -- -- 92
2018-11-18 18:00:00 7.9 20 Sudeste 49 Sudeste 0 -- -- 93
2018-11-18 17:00:00 8.3 21 Sudeste 51 Este 0 -- -- 89
2018-11-18 16:00:00 8.4 23 Sudeste 51 Sudeste 0 -- -- 89
2018-11-18 15:00:00 9 21 Sudeste 50 Este 0 -- -- 87
2018-11-18 14:00:00 9.6 20 Sudeste 49 Sudeste 0 -- -- 84
2018-11-18 13:00:00 10.6 18 Este 51 Sudeste 0 -- -- 81
2018-11-18 12:00:00 9.8 20 Sudeste 55 Sudeste 0 -- -- 85
2018-11-18 11:00:00 10.7 14 Sudeste 41 Sudeste 0 -- -- 82
2018-11-18 10:00:00 9.7 12 Sudeste 37 Este 0 -- -- 88
2018-11-18 09:00:00 9.5 13 Sudeste 36 Sudeste 0 -- -- 93
2018-11-18 08:00:00 9.8 10 Sudeste 30 Sudeste 0 -- -- 93
2018-11-18 07:00:00 9.9 11 Sur 23 Sur 0 -- -- 94
2018-11-18 06:00:00 10.1 10 Sur 22 Sudeste 0 -- -- 93
2018-11-18 05:00:00 10 8 Sur 19 Sur 0 -- -- 94
2018-11-18 04:00:00 10.1 6 Sur 18 Sudeste 0 -- -- 95
2018-11-18 03:00:00 9.9 3 Sur 9 Sudeste 0 -- -- 95
2018-11-18 02:00:00 9.6 0 Calma 3 Sur 0 -- -- 94
2018-11-18 01:00:00 9.9 0 Calma 3 Sudeste 0 -- -- 94
2018-11-18 00:00:00 10.3 0 Calma 6 Sudoeste 0 -- -- 92
2018-11-17 23:00:00 10.7 3 Sudeste 7 Sudeste 0 -- -- 90
2018-11-17 22:00:00 10.7 3 Este 9 Este 0 -- -- 90
2018-11-17 21:00:00 10.9 5 Sudeste 10 Este 0 -- -- 88
2018-11-17 20:00:00 11 2 Este 7 Sudeste 0 -- -- 88
2018-11-17 19:00:00 11.2 0 Calma 8 Sur 0 -- -- 88
2018-11-17 18:00:00 11.5 4 Sur 11 Sur 0 -- -- 87
2018-11-17 17:00:00 12.1 3 Sur 10 Sur 0 -- -- 85
2018-11-17 16:00:00 12.4 4 Sudoeste 12 Sudoeste 0 -- -- 83
2018-11-17 15:00:00 13.4 6 Sur 19 Sudoeste 0 -- -- 79
2018-11-17 14:00:00 15 7 Sur 17 Sudoeste 0 -- -- 73
2018-11-17 13:00:00 15.3 8 Sur 26 Sur 0 -- -- 71
2018-11-17 12:00:00 14.9 8 Sur 23 Sur 0 -- -- 73
2018-11-17 11:00:00 13.3 10 Sur 24 Sur 0 -- -- 79
2018-11-17 10:00:00 11.3 8 Sur 20 Sur 0 -- -- 90
2018-11-17 09:00:00 10.4 5 Sur 20 Sur 0 -- -- 93
2018-11-17 08:00:00 9.8 6 Sur 20 Sur 0 -- -- 94
2018-11-17 07:00:00 9.3 5 Sudeste 12 Sur 0 -- -- 94
2018-11-17 06:00:00 10.1 4 Sur 18 Sur 0 -- -- 90
2018-11-17 05:00:00 10.7 6 Este 18 Este 0 -- -- 87
2018-11-17 04:00:00 9.7 3 Nordeste 27 Sudeste 0 -- -- 88
2018-11-17 03:00:00 11.6 9 Sudeste 21 Sur 0 -- -- 87
2018-11-17 02:00:00 11.6 9 Sudeste 21 Sudeste 0 -- -- 87
2018-11-17 01:00:00 10.4 4 Oeste 12 Oeste 0 -- -- 89
2018-11-17 00:00:00 12.4 4 Oeste 24 Sudeste 0 -- -- 79
2018-11-16 23:00:00 13.2 11 Sudeste 35 Sudeste 0 -- -- 76
2018-11-16 22:00:00 13.1 11 Sudeste 24 Sudeste 0 -- -- 76
2018-11-16 21:00:00 13.4 8 Sudeste 35 Sudeste 0 -- -- 74
2018-11-16 20:00:00 13.7 11 Sudeste 40 Este 0 -- -- 73
2018-11-16 19:00:00 13.6 15 Sudeste 34 Sudeste 0 -- -- 74
2018-11-16 18:00:00 14.1 10 Sudeste 36 Sudeste 0 -- -- 73
2018-11-16 17:00:00 15.1 11 Sudeste 27 Sudeste 0 -- -- 74
2018-11-16 16:00:00 16.3 11 Sur 28 Sur 0 -- -- 71
2018-11-16 15:00:00 15.8 12 Sudeste 28 Sudeste 0 -- -- 74
2018-11-16 14:00:00 15.7 15 Sudeste 31 Sur 0 -- -- 72
2018-11-16 13:00:00 15.5 17 Sudeste 33 Sur 0 -- -- 72
2018-11-16 12:00:00 14.8 14 Sudeste 36 Sudeste 0 -- -- 76
2018-11-16 11:00:00 12.7 13 Sudeste 31 Sudeste 0 -- -- 85
2018-11-16 10:00:00 12.4 12 Sudeste 30 Sur 0 -- -- 87
2018-11-16 09:00:00 12 8 Sudeste 21 Sur 0 -- -- 88
2018-11-16 08:00:00 11.4 9 Sur 24 Sudeste 0 -- -- 89
2018-11-16 07:00:00 11.2 4 Sur 12 Sudeste 0 -- -- 90
2018-11-16 06:00:00 10.4 7 Norte 11 Norte 0 -- -- 91
2018-11-16 05:00:00 11.3 8 Norte 32 Sudeste 0 -- -- 86
2018-11-16 04:00:00 12.3 10 Sudeste 27 Sudeste 0 -- -- 82
2018-11-16 03:00:00 13 13 Sudeste 26 Sudeste 0 -- -- 78
2018-11-16 02:00:00 13.7 10 Sudeste 24 Este 0 -- -- 75
2018-11-16 01:00:00 13.4 7 Sudeste 21 Sudeste 0 -- -- 78
2018-11-16 00:00:00 13.5 3 Sudeste 19 Sudeste 0 -- -- 76
2018-11-15 23:00:00 14.3 9 Sudeste 28 Sudeste 0 -- -- 71
2018-11-15 22:00:00 13.9 5 Sudeste 28 Sudeste 0 -- -- 74
2018-11-15 21:00:00 14.2 10 Sudeste 29 Sudeste 0 -- -- 74
2018-11-15 20:00:00 13.8 11 Sudeste 30 Sudeste 0 -- -- 76
2018-11-15 19:00:00 14.4 12 Sudeste 29 Sudeste 0 -- -- 71
2018-11-15 18:00:00 14.5 6 Sudeste 20 Este 0 -- -- 72
2018-11-15 17:00:00 15.3 10 Sudeste 21 Este 0 -- -- 69
2018-11-15 16:00:00 16.1 8 Sudeste 24 Sudeste 0 -- -- 65
2018-11-15 15:00:00 16.7 11 Sudeste 26 Sur 0 -- -- 66
2018-11-15 14:00:00 17.6 12 Sudeste 24 Sudeste 0 -- -- 65
2018-11-15 13:00:00 16.9 7 Sudeste 26 Sudeste 0 -- -- 71
2018-11-15 12:00:00 17.2 10 Sudeste 24 Sur 0 -- -- 65
2018-11-15 11:00:00 15.8 8 Sur -- -- -- -- -- 73
2018-11-15 10:00:00 -- 7 Oeste 20 Sur 0 -- -- --
2018-11-15 09:00:00 12.4 9 Sudeste 23 Sudeste 0 -- -- 84
2018-11-15 08:00:00 11.7 7 Sudeste 23 Sudeste 0 -- -- 87
2018-11-15 07:00:00 12 13 Sudeste 28 Sudeste 0 -- -- 86
2018-11-15 06:00:00 12.3 9 Sudeste 29 Sudeste 0 -- -- 83
2018-11-15 05:00:00 12.3 12 Sudeste 34 Sudeste 0 -- -- 84
2018-11-15 04:00:00 12.8 14 Sudeste 36 Sudeste 0 -- -- 82
2018-11-15 03:00:00 13.1 12 Sudeste 30 Sudeste 0 -- -- 78
2018-11-15 02:00:00 13.1 11 Sudeste 30 Sudeste 0 -- -- 78
2018-11-15 01:00:00 13.4 14 Sudeste 33 Sudeste 0 -- -- 76
2018-11-15 00:00:00 13.3 12 Sudeste 28 Sudeste 0 -- -- 77
2018-11-14 23:00:00 13.5 13 Sudeste 35 Sudeste 0 -- -- 77
2018-11-14 22:00:00 13.4 12 Sudeste 32 Sudeste 0 -- -- 77
2018-11-14 21:00:00 13.5 14 Sudeste 36 Sur 0 -- -- 77
2018-11-14 20:00:00 14.1 16 Sudeste 45 Sudeste 0 -- -- 71
2018-11-14 19:00:00 14.1 18 Sudeste 41 Sudeste 0 -- -- 69
2018-11-14 18:00:00 14.7 13 Este 35 Sudeste 0 -- -- 66
2018-11-14 17:00:00 15.4 11 Sudeste 31 Sudeste 0 -- -- 72
2018-11-14 16:00:00 17.2 10 Sudeste 36 Sudeste 0 -- -- 66
2018-11-14 15:00:00 16.7 11 Sudeste 31 Sudeste 0 -- -- 72
2018-11-14 14:00:00 17.2 15 Sudeste 30 Sur 0 -- -- 70
2018-11-14 13:00:00 16.1 16 Sur 36 Este 0 -- -- 72
2018-11-14 12:00:00 13.6 13 Sur 33 Sur 0 -- -- 94
2018-11-14 11:00:00 10.1 2 Noroeste 8 Sur 0 -- -- 97
2018-11-14 10:00:00 9.4 0 Calma 6 Noroeste 0 -- -- 98
2018-11-14 09:00:00 8.8 0 Calma 5 Oeste 0 -- -- 97
2018-11-14 08:00:00 8.9 3 Sudoeste 6 Sudoeste 0 -- -- 97
2018-11-14 07:00:00 9 0 Calma 5 Sudeste 0 -- -- 97
2018-11-14 06:00:00 9.2 0 Calma 5 Sudoeste 0 -- -- 97
2018-11-14 05:00:00 9.4 2 Sur 5 Sudeste 0 -- -- 97
2018-11-14 04:00:00 9.3 0 Calma 5 Oeste 0 -- -- 96
2018-11-14 03:00:00 8.8 0 Calma 5 Sudeste 0 -- -- 96
2018-11-14 02:00:00 8.6 0 Calma 6 Norte 0 -- -- 95
2018-11-14 01:00:00 8.9 2 Sudeste 17 Sudeste 0 -- -- 92
2018-11-14 00:00:00 12 9 Sudeste 23 Sur 0 -- -- 84
2018-11-13 23:00:00 12.3 11 Sur 25 Sur 0 -- -- 81
2018-11-13 22:00:00 13 9 Sudeste 26 Sur 0 -- -- 78
2018-11-13 21:00:00 12.4 6 Sudeste 19 Este 0 -- -- 82
2018-11-13 20:00:00 12.3 5 Sudeste 15 Sudeste 0 -- -- 84
2018-11-13 19:00:00 12.7 4 Sur 8 Sudeste 0 -- -- 88
2018-11-13 18:00:00 13 0 Calma 3 Sudoeste 0 -- -- 86
2018-11-13 17:00:00 14.6 0 Calma 9 Oeste 0 -- -- 77
2018-11-13 16:00:00 15.9 7 Oeste 14 Noroeste 0 -- -- 73
2018-11-13 15:00:00 16 6 Oeste 12 Sudoeste 0 -- -- 74
2018-11-13 14:00:00 14.9 5 Sudoeste 10 Sudoeste 0 -- -- 76
2018-11-13 13:00:00 12.8 2 Este 10 Sudoeste 0 -- -- 83
2018-11-13 12:00:00 12.9 3 Sudoeste 8 Sudoeste 0 -- -- 83
2018-11-13 11:00:00 12 4 Sudoeste 8 Sudoeste 0 -- -- 86
2018-11-13 10:00:00 10.6 0 Calma 6 Noroeste 0 -- -- 91
2018-11-13 09:00:00 9.8 0 Calma 15 Nordeste 0 -- -- 93
2018-11-13 08:00:00 9.8 3 Sur 15 Nordeste 0 -- -- 92
2018-11-13 07:00:00 9.8 2 Sudoeste 8 Oeste 0 -- -- 93
2018-11-13 06:00:00 9.8 0 Calma 6 Norte 0 -- -- 94
2018-11-13 05:00:00 9.5 0 Calma 4 Este 0 -- -- 94
2018-11-13 04:00:00 9.2 0 Calma 15 Noroeste 0 -- -- 93
2018-11-13 03:00:00 10.1 8 Nordeste 35 Este 0 -- -- 89
2018-11-13 02:00:00 10.4 5 Este 20 Nordeste 0 -- -- 91
2018-11-13 01:00:00 9.9 2 Sudeste 14 Norte 0 -- -- 93
2018-11-13 00:00:00 10.9 10 Nordeste 19 Norte 0 -- -- 90
2018-11-12 23:00:00 11.2 3 Oeste 9 Sur 0 -- -- 93
2018-11-12 22:00:00 12 3 Nordeste 21 Norte 0 -- -- 90
2018-11-12 21:00:00 11.9 4 Nordeste 13 Norte 0 -- -- 93
2018-11-12 20:00:00 11.9 2 Nordeste 5 Nordeste 0 -- -- 93
2018-11-12 19:00:00 11.9 2 Norte 8 Nordeste 0 -- -- 92
2018-11-12 18:00:00 12 3 Este 6 Nordeste 0 -- -- 93
2018-11-12 17:00:00 12.5 4 Norte 14 Sudeste 0 -- -- 90
2018-11-12 16:00:00 12.7 5 Este 18 Sudeste 0.2 -- -- 91
2018-11-12 15:00:00 12.5 4 Noroeste 7 Noroeste 0.4 -- -- 93
2018-11-12 14:00:00 12.4 0 Calma 5 Sur 0 -- -- 93
2018-11-12 13:00:00 12 2 Noroeste 7 Sudoeste 0 -- -- 93
2018-11-12 12:00:00 12.3 5 Sur 12 Sudeste 0 -- -- 93
2018-11-12 11:00:00 11.6 3 Sur 13 Norte 1.4 -- -- 94
2018-11-12 10:00:00 10.9 4 Noroeste 8 Noroeste 0.2 -- -- 94
2018-11-12 09:00:00 10.6 3 Norte 12 Noroeste 0.2 -- -- 93
2018-11-12 08:00:00 10.6 0 Calma 10 Norte 0.4 -- -- 92
2018-11-12 07:00:00 11.1 3 Noroeste 8 Noroeste 0 -- -- 89
2018-11-12 06:00:00 10.9 5 Norte 15 Noroeste 0 -- -- 88
2018-11-12 05:00:00 11.9 5 Este 12 Sudeste 0 -- -- 84
2018-11-12 04:00:00 11.7 3 Nordeste 14 Norte 0 -- -- 81
2018-11-12 03:00:00 12.6 13 Oeste 35 Oeste 0 -- -- 78
2018-11-12 02:00:00 14.2 15 Sudeste 35 Este 0 -- -- 71
2018-11-12 01:00:00 14.6 18 Sudeste 37 Sudeste 0 -- -- 68
2018-11-12 00:00:00 14.3 14 Este 39 Sudeste 0 -- -- 71
2018-11-11 23:00:00 15.1 18 Sudeste 41 Este 0.2 -- -- 64
2018-11-11 22:00:00 15 17 Sudeste 41 Este 0 -- -- 67
2018-11-11 21:00:00 14.9 15 Sudeste 33 Este 0 -- -- 65
2018-11-11 20:00:00 14.6 14 Sudeste 31 Sudeste 0 -- -- 67
2018-11-11 19:00:00 14.1 13 Sudeste 27 Sudeste 0 -- -- 71
2018-11-11 18:00:00 13.4 8 Sudeste 18 Sudeste 0.6 -- -- 82
2018-11-11 17:00:00 14.6 6 Sudeste 24 Sudeste 0 -- -- 74
2018-11-11 16:00:00 15 6 Sudeste 26 Sudeste 0 -- -- 75
2018-11-11 15:00:00 15.4 13 Sudeste 25 Sudeste 0 -- -- 72
2018-11-11 14:00:00 16.2 5 Sudeste 21 Sur 0 -- -- 67
2018-11-11 13:00:00 15.6 12 Sudeste 21 Este 0 -- -- 66
2018-11-11 12:00:00 14.3 5 Sur 12 Sudoeste 0 -- -- 73
2018-11-11 11:00:00 13.9 3 Sur 8 Sudoeste 0 -- -- 74
2018-11-11 10:00:00 9.2 4 Sur 13 Sudeste 0 -- -- 85
2018-11-11 09:00:00 10.3 6 Norte 32 Oeste 0 -- -- 79
2018-11-11 08:00:00 10 6 Norte 16 Noroeste 0 -- -- 78
2018-11-11 07:00:00 10 5 Nordeste 18 Oeste 0 -- -- 78
2018-11-11 06:00:00 10.2 4 Norte 14 Oeste 0 -- -- 77
2018-11-11 05:00:00 9.3 4 Sudeste 11 Sudeste 0 -- -- 82
2018-11-11 04:00:00 11.6 6 Norte 14 Oeste 0 -- -- 68
2018-11-11 03:00:00 12.7 6 Noroeste 18 Noroeste 0 -- -- 62
2018-11-11 02:00:00 12.6 7 Noroeste 24 Noroeste 0 -- -- 65
2018-11-11 01:00:00 12.1 6 Norte 17 Noroeste 0 -- -- 71
2018-11-11 00:00:00 12.7 10 Noroeste 30 Noroeste 0 -- -- 72
2018-11-10 23:00:00 12.7 8 Norte 22 Norte 0 -- -- 73
2018-11-10 22:00:00 12.9 11 Oeste 35 Oeste 0 -- -- 72
2018-11-10 21:00:00 13.4 14 Oeste 37 Noroeste 0 -- -- 69
2018-11-10 20:00:00 13.7 22 Oeste 41 Noroeste 0 -- -- 66
2018-11-10 19:00:00 13.7 10 Oeste 33 Oeste 0 -- -- 67
2018-11-10 18:00:00 14.5 17 Oeste 37 Oeste 0 -- -- 65
2018-11-10 17:00:00 14.8 17 Oeste 38 Noroeste 0 -- -- 70
2018-11-10 16:00:00 13.2 3 Oeste 11 Sudoeste 0 -- -- 78
2018-11-10 15:00:00 13.9 5 Norte 15 Norte 0 -- -- 77
2018-11-10 14:00:00 12.1 3 Noroeste 9 Oeste 0 -- -- 82
2018-11-10 13:00:00 13.1 3 Sur 20 Oeste 0 -- -- 79
2018-11-10 12:00:00 13.1 2 Sudeste 16 Norte 0 -- -- 77
2018-11-10 11:00:00 12.5 6 Noroeste 19 Noroeste 0 -- -- 80
2018-11-10 10:00:00 9.5 4 Norte 15 Oeste 0 -- -- 91
2018-11-10 09:00:00 8.2 7 Norte 32 Noroeste 0 -- -- 90
2018-11-10 08:00:00 10.6 4 Sudeste 11 Sudeste 0 -- -- 84
2018-11-10 07:00:00 9.3 3 Este 9 Sudeste 0 -- -- 86
2018-11-10 06:00:00 7.4 2 Sudeste 8 Nordeste 0 -- -- 92
2018-11-10 05:00:00 7.9 3 Norte 14 Sudoeste 0 -- -- 89
2018-11-10 04:00:00 8.6 4 Sudoeste 20 Nordeste 0 -- -- 88
2018-11-10 03:00:00 8.1 5 Nordeste 12 Sudoeste 0.6 -- -- 92
2018-11-10 02:00:00 8.6 6 Norte 17 Nordeste 0 -- -- 89
2018-11-10 01:00:00 9.7 4 Nordeste 12 Norte 0.2 -- -- 90
2018-11-10 00:00:00 8.8 2 Este 9 Este 1.6 -- -- 92